Time;durP1;ratioP1;P1;durP2;ratioP2;P2;SDS_P1;SDS_P2;PMS_P1;PMS_P2;Temp;Humidity;BMP_temperature;BMP_pressure;BME280_temperature;BME280_humidity;BME280_pressure;Samples;Min_cycle;Max_cycle;Signal;HPM_P1;HPM_P2
2023/01/06 09:32:20;;;;;;;561.90;522.00;;;19.20;93.40;;;;;;5062601;28;20715;-35
2023/01/06 09:34:47;;;;;;;575.22;540.22;;;19.20;93.50;;;;;;5050608;28;20673;-33
2023/01/06 09:37:14;;;;;;;594.65;556.15;;;19.20;93.40;;;;;;5058983;28;20630;-33
2023/01/06 09:39:41;;;;;;;564.15;534.50;;;19.10;93.40;;;;;;5065196;28;20245;-33
2023/01/06 09:42:43;;;;;;;420.77;402.52;;;19.10;93.40;;;;;;5055430;28;20203;-33
2023/01/06 09:45:16;;;;;;;314.75;302.73;;;19.10;93.40;;;;;;5061444;28;20222;-34
2023/01/06 09:47:51;;;;;;;254.93;245.32;;;19.10;93.80;;;;;;5059011;28;20302;-35
2023/01/06 09:50:28;;;;;;;345.65;331.15;;;19.10;93.40;;;;;;5061025;28;20688;-35
2023/01/06 09:52:58;;;;;;;326.73;313.88;;;19.10;93.40;;;;;;5061494;28;20673;-35
2023/01/06 09:55:32;;;;;;;353.08;338.92;;;19.10;93.40;;;;;;5054129;28;20199;-35
2023/01/06 09:58:03;;;;;;;463.83;442.98;;;19.10;93.40;;;;;;5067811;28;20195;-34
2023/01/06 10:00:36;;;;;;;494.73;470.90;;;19.10;93.40;;;;;;5065825;28;20213;-34
2023/01/06 10:03:05;;;;;;;554.97;524.55;;;19.10;93.40;;;;;;5058987;28;20198;-35
2023/01/06 10:05:41;;;;;;;417.77;399.75;;;19.00;93.30;;;;;;5054471;28;20195;-34
2023/01/06 10:08:14;;;;;;;463.40;441.90;;;19.10;93.40;;;;;;5057561;28;20192;-34
2023/01/06 10:10:49;;;;;;;567.50;538.25;;;19.10;93.30;;;;;;5057016;28;20757;-35
2023/01/06 10:13:33;;;;;;;628.67;586.60;;;19.10;93.30;;;;;;5060995;28;20198;-34
2023/01/06 10:16:09;;;;;;;377.85;362.52;;;19.10;93.30;;;;;;5060572;28;20194;-35
2023/01/06 10:18:48;;;;;;;406.20;388.45;;;19.10;93.30;;;;;;5052828;28;20196;-35
2023/01/06 10:21:23;;;;;;;381.92;366.17;;;19.10;93.30;;;;;;5046244;28;20238;-34
2023/01/06 10:24:28;;;;;;;446.77;426.40;;;19.10;93.30;;;;;;5064249;28;20197;-35
2023/01/06 10:26:58;;;;;;;580.88;544.65;;;19.00;93.30;;;;;;5025923;28;20222;-35
2023/01/06 10:29:30;;;;;;;414.15;395.95;;;19.10;93.30;;;;;;5059505;28;20285;-35
2023/01/06 10:31:59;;;;;;;519.15;492.90;;;19.00;93.30;;;;;;5059827;28;20631;-36
2023/01/06 10:34:30;;;;;;;618.88;581.45;;;19.10;93.50;;;;;;5055995;28;20201;-36
2023/01/06 10:37:02;;;;;;;611.45;575.60;;;19.10;93.60;;;;;;5064062;28;20202;-36
2023/01/06 10:39:31;;;;;;;331.83;318.42;;;19.20;93.80;;;;;;5056812;28;20202;-41
2023/01/06 10:44:53;;;;;;;548.83;518.58;;;19.70;93.20;;;;;;5052238;28;20208;-39
2023/01/06 10:47:25;;;;;;;595.03;562.03;;;20.40;92.20;;;;;;5044597;28;20875;-39
2023/01/06 10:49:53;;;;;;;652.25;608.53;;;20.80;91.40;;;;;;5045895;28;20202;-40
2023/01/06 10:52:21;;;;;;;447.15;427.33;;;21.10;90.50;;;;;;5047188;28;20300;-39
2023/01/06 10:54:51;;;;;;;364.48;350.08;;;21.20;90.10;;;;;;5047910;28;20240;-38
2023/01/06 10:57:25;;;;;;;461.00;439.08;;;21.20;90.00;;;;;;5048946;28;20219;-38
2023/01/06 11:00:11;;;;;;;279.17;268.50;;;21.30;89.50;;;;;;5040974;28;20626;-38
2023/01/06 11:02:42;;;;;;;306.48;295.08;;;21.30;89.50;;;;;;5046555;28;20659;-40
2023/01/06 11:05:18;;;;;;;308.38;296.70;;;21.20;89.50;;;;;;5049293;28;20204;-40
2023/01/06 11:07:56;;;;;;;620.00;586.03;;;21.20;89.80;;;;;;5049560;28;20195;-39
2023/01/06 11:10:30;;;;;;;614.55;578.65;;;21.10;89.90;;;;;;5047454;28;20597;-40
2023/01/06 11:13:00;;;;;;;648.35;606.78;;;21.00;89.90;;;;;;5049654;28;20231;-39
2023/01/06 11:15:35;;;;;;;598.10;564.97;;;21.00;90.00;;;;;;5039393;28;20580;-39
2023/01/06 11:18:03;;;;;;;481.23;457.70;;;21.00;90.00;;;;;;5052224;28;20226;-39
2023/01/06 11:20:33;;;;;;;534.92;508.70;;;21.10;90.10;;;;;;5055132;28;20196;-39
2023/01/06 11:23:19;;;;;;;456.38;434.58;;;21.10;90.30;;;;;;5058713;28;20277;-39
2023/01/06 11:26:00;;;;;;;458.73;437.88;;;21.10;90.00;;;;;;5050165;28;20191;-39
2023/01/06 11:28:27;;;;;;;654.10;605.30;;;21.20;89.70;;;;;;5040337;28;20212;-39
2023/01/06 11:30:58;;;;;;;363.55;348.20;;;21.10;89.60;;;;;;5048316;28;20229;-39
2023/01/06 11:33:27;;;;;;;671.97;630.17;;;21.10;89.80;;;;;;5045031;28;20201;-39
2023/01/06 11:35:56;;;;;;;662.50;613.30;;;21.10;89.90;;;;;;5047448;28;20339;-39
2023/01/06 11:38:23;;;;;;;264.65;255.52;;;21.20;89.80;;;;;;5044986;28;20200;-39
2023/01/06 11:40:52;;;;;;;512.28;488.17;;;21.20;89.90;;;;;;5042386;28;21178;-35
2023/01/06 11:43:24;;;;;;;458.23;436.70;;;21.20;90.10;;;;;;5044499;28;20497;-35
2023/01/06 11:45:56;;;;;;;535.78;509.75;;;21.40;90.10;;;;;;5046872;28;20189;-35
2023/01/06 11:48:28;;;;;;;576.58;547.10;;;21.60;89.90;;;;;;5042663;28;20734;-35
2023/01/06 11:50:58;;;;;;;575.58;544.78;;;21.90;88.40;;;;;;5048407;28;20228;-34
2023/01/06 11:53:25;;;;;;;390.88;374.08;;;22.10;87.30;;;;;;5053002;28;20207;-34
2023/01/06 11:56:01;;;;;;;466.63;446.10;;;22.30;86.70;;;;;;5044206;28;20199;-35
2023/01/06 11:58:39;;;;;;;511.33;487.98;;;22.40;85.60;;;;;;5041847;28;20201;-34
2023/01/06 12:01:12;;;;;;;705.45;654.88;;;22.50;84.90;;;;;;5048875;28;20204;-35
2023/01/06 12:03:42;;;;;;;762.83;705.58;;;22.60;84.50;;;;;;5048100;28;20196;-34
2023/01/06 12:06:22;;;;;;;672.90;632.97;;;22.80;83.80;;;;;;5046590;28;20201;-34
2023/01/06 12:08:55;;;;;;;713.17;665.78;;;22.90;83.00;;;;;;5043763;28;20684;-32
2023/01/06 12:11:29;;;;;;;680.28;639.10;;;22.90;82.30;;;;;;5043624;28;20225;-35
2023/01/06 12:13:56;;;;;;;646.05;610.35;;;23.00;81.90;;;;;;5049855;28;20200;-35
2023/01/06 12:16:34;;;;;;;657.10;621.30;;;23.00;81.80;;;;;;5046283;28;20206;-35
2023/01/06 12:19:02;;;;;;;610.72;578.75;;;23.10;81.60;;;;;;5046809;28;20567;-35
2023/01/06 12:21:35;;;;;;;520.35;496.45;;;23.10;81.30;;;;;;5047494;28;20238;-35
2023/01/06 12:24:06;;;;;;;539.33;513.35;;;23.10;81.30;;;;;;5049018;28;20265;-35
2023/01/06 12:26:34;;;;;;;459.30;439.98;;;23.00;81.50;;;;;;5044959;28;20216;-35
2023/01/06 12:29:02;;;;;;;638.45;605.10;;;23.10;81.50;;;;;;5044357;28;20204;-35
2023/01/06 12:31:38;;;;;;;574.95;548.13;;;23.10;81.00;;;;;;5047173;28;20221;-35
2023/01/06 12:34:10;;;;;;;619.08;587.17;;;23.10;80.70;;;;;;5037553;28;20197;-35
2023/01/06 12:36:46;;;;;;;511.58;487.52;;;23.10;80.70;;;;;;5045944;28;20192;-35
2023/01/06 12:39:22;;;;;;;575.22;546.03;;;23.10;80.60;;;;;;5049476;28;20554;-33
2023/01/06 12:41:55;;;;;;;562.05;535.10;;;23.20;80.20;;;;;;5046861;28;20606;-33
2023/01/06 12:44:34;;;;;;;595.90;567.08;;;23.30;80.00;;;;;;5047699;28;20215;-35
2023/01/06 12:47:07;;;;;;;375.67;361.27;;;23.30;79.60;;;;;;5047847;28;20196;-35
2023/01/06 12:49:42;;;;;;;308.67;297.63;;;23.40;78.90;;;;;;5049766;28;20192;-35
2023/01/06 12:52:17;;;;;;;252.27;243.50;;;23.50;78.30;;;;;;5042629;28;20227;-35
2023/01/06 12:54:50;;;;;;;251.40;242.88;;;23.60;77.60;;;;;;5043951;28;20238;-35
2023/01/06 12:57:43;;;;;;;311.42;300.42;;;23.60;77.20;;;;;;5041369;28;20224;-35
2023/01/06 13:00:30;;;;;;;617.30;586.63;;;23.60;76.90;;;;;;5044842;28;20271;-35
2023/01/06 13:03:25;;;;;;;568.42;540.80;;;23.80;76.50;;;;;;5047068;28;20202;-35
2023/01/06 13:06:05;;;;;;;602.40;572.05;;;23.90;74.70;;;;;;5044519;28;20549;-35
2023/01/06 13:08:50;;;;;;;595.97;566.97;;;23.80;75.10;;;;;;5047570;28;20279;-35
2023/01/06 13:11:28;;;;;;;578.40;550.47;;;23.80;74.90;;;;;;5041717;28;20202;-35
2023/01/06 13:14:02;;;;;;;617.20;586.05;;;23.80;75.30;;;;;;5053938;28;20209;-35
2023/01/06 13:16:37;;;;;;;651.25;617.40;;;23.70;75.70;;;;;;5046208;28;20201;-35
2023/01/06 13:19:16;;;;;;;625.63;593.92;;;23.90;74.80;;;;;;5040729;28;20193;-35
2023/01/06 13:21:44;;;;;;;669.60;634.13;;;24.10;74.20;;;;;;5043900;28;20564;-34
2023/01/06 13:24:33;;;;;;;497.02;475.77;;;23.90;74.30;;;;;;5047735;28;20224;-34
2023/01/06 13:27:20;;;;;;;731.45;689.60;;;24.00;74.30;;;;;;5044696;28;20299;-35
2023/01/06 13:30:01;;;;;;;816.47;759.22;;;23.80;74.70;;;;;;5043351;28;20205;-35
2023/01/06 13:32:46;;;;;;;665.30;629.72;;;23.80;74.60;;;;;;5039912;28;20695;-35
2023/01/06 13:35:28;;;;;;;463.25;444.33;;;23.70;74.60;;;;;;5045350;28;20202;-35
2023/01/06 13:38:09;;;;;;;651.13;617.40;;;23.70;74.80;;;;;;5040989;28;20203;-35
2023/01/06 13:40:40;;;;;;;701.25;664.25;;;23.50;75.40;;;;;;5049980;28;20193;-35
2023/01/06 13:43:14;;;;;;;592.78;563.97;;;23.40;75.60;;;;;;5040457;28;20668;-34
2023/01/06 13:45:45;;;;;;;623.13;592.05;;;23.50;75.70;;;;;;5043175;28;20196;-34
2023/01/06 13:48:17;;;;;;;701.83;663.63;;;23.50;75.60;;;;;;5041720;28;20656;-35
2023/01/06 13:50:44;;;;;;;613.20;582.15;;;23.50;75.50;;;;;;5047037;28;20722;-35
2023/01/06 13:53:17;;;;;;;674.70;640.08;;;23.50;75.60;;;;;;5038473;28;20233;-35
2023/01/06 13:55:46;;;;;;;627.22;595.65;;;23.50;75.70;;;;;;5041469;28;20200;-35
2023/01/06 13:58:34;;;;;;;627.45;595.75;;;23.40;75.60;;;;;;5035213;28;20213;-35
2023/01/06 14:01:08;;;;;;;710.80;672.08;;;23.40;75.50;;;;;;5043007;28;20193;-35
2023/01/06 14:03:36;;;;;;;680.05;643.53;;;23.30;75.30;;;;;;5042649;28;20208;-35
2023/01/06 14:06:03;;;;;;;690.22;653.00;;;23.30;75.50;;;;;;5040293;28;20671;-32
2023/01/06 14:08:36;;;;;;;742.90;700.80;;;23.10;76.50;;;;;;5041190;28;20202;-38
2023/01/06 14:11:19;;;;;;;774.53;727.17;;;22.70;76.80;;;;;;5040272;28;20207;-37
2023/01/06 14:13:50;;;;;;;769.80;724.58;;;22.80;76.40;;;;;;5038550;28;20247;-37
2023/01/06 14:16:17;;;;;;;755.17;710.25;;;22.90;76.30;;;;;;5038280;28;20497;-37
2023/01/06 14:18:46;;;;;;;769.55;723.00;;;22.90;76.40;;;;;;5044844;28;20619;-37
2023/01/06 14:21:20;;;;;;;781.85;734.05;;;22.90;76.10;;;;;;5045854;28;20201;-35
2023/01/06 14:23:53;;;;;;;740.90;696.25;;;22.90;76.10;;;;;;5044140;28;20314;-35
2023/01/06 14:26:22;;;;;;;781.13;731.15;;;22.90;76.30;;;;;;5045825;28;20198;-35
2023/01/06 14:28:48;;;;;;;779.45;729.63;;;22.90;76.30;;;;;;5040890;28;20205;-37
2023/01/06 14:31:46;;;;;;;645.50;611.83;;;22.90;76.20;;;;;;5046372;28;20250;-40
2023/01/06 14:34:15;;;;;;;608.00;577.50;;;22.90;76.10;;;;;;5042864;28;20225;-34
2023/01/06 14:36:42;;;;;;;588.75;559.25;;;23.00;76.20;;;;;;5048668;28;20204;-36
2023/01/06 14:39:17;;;;;;;623.42;591.83;;;23.00;77.00;;;;;;5050077;28;20198;-32
2023/01/06 14:41:52;;;;;;;633.83;600.45;;;22.90;76.60;;;;;;5045583;28;20202;-32
2023/01/06 14:44:26;;;;;;;645.47;612.58;;;22.70;77.40;;;;;;5054137;28;20199;-32
2023/01/06 14:46:57;;;;;;;656.88;622.63;;;22.60;77.90;;;;;;5043932;28;20198;-32
2023/01/06 14:49:27;;;;;;;658.55;623.10;;;22.60;78.10;;;;;;5039684;28;20202;-37
2023/01/06 14:51:57;;;;;;;674.05;637.63;;;22.50;78.00;;;;;;5041214;28;20237;-44
2023/01/06 14:54:29;;;;;;;622.60;591.05;;;23.00;76.90;;;;;;5049849;28;20577;-42
2023/01/06 14:56:58;;;;;;;659.50;625.80;;;23.30;75.90;;;;;;5049629;28;20197;-41
2023/01/06 14:59:26;;;;;;;732.42;692.08;;;23.40;75.60;;;;;;5045100;28;20203;-41
2023/01/06 15:02:01;;;;;;;789.83;731.05;;;23.40;75.40;;;;;;5049198;28;20199;-39
2023/01/06 15:04:30;;;;;;;652.70;618.75;;;23.40;75.30;;;;;;5049556;28;20216;-40
2023/01/06 15:07:05;;;;;;;579.38;551.10;;;23.40;75.30;;;;;;5049269;28;20201;-40
2023/01/06 15:09:33;;;;;;;643.42;610.88;;;23.40;75.30;;;;;;5052124;28;20560;-40
2023/01/06 15:12:01;;;;;;;633.83;601.78;;;23.40;75.30;;;;;;5044346;28;20228;-39
2023/01/06 15:14:30;;;;;;;640.25;607.75;;;23.40;75.40;;;;;;5049922;28;20207;-40
2023/01/06 15:17:02;;;;;;;611.35;581.47;;;23.40;75.50;;;;;;5050202;28;20223;-40
2023/01/06 15:19:29;;;;;;;665.53;631.22;;;23.30;75.60;;;;;;5042964;28;20287;-40
2023/01/06 15:21:59;;;;;;;583.65;555.60;;;23.30;75.60;;;;;;5051367;28;20349;-40
2023/01/06 15:24:29;;;;;;;588.30;559.30;;;23.30;75.80;;;;;;5055677;28;20199;-41
2023/01/06 15:27:03;;;;;;;591.63;562.38;;;23.30;75.90;;;;;;5044595;28;20217;-40
2023/01/06 15:29:31;;;;;;;592.83;563.60;;;23.30;76.00;;;;;;5046682;28;20198;-40
2023/01/06 15:31:58;;;;;;;542.08;516.97;;;23.20;75.90;;;;;;5051483;28;20213;-40
2023/01/06 15:34:32;;;;;;;629.97;597.80;;;23.30;76.10;;;;;;5042890;28;20577;-40
2023/01/06 15:37:00;;;;;;;662.58;628.10;;;23.30;76.10;;;;;;5041663;28;20209;-39
2023/01/06 15:39:29;;;;;;;670.15;634.88;;;23.20;76.10;;;;;;5039810;28;20201;-39
2023/01/06 15:41:57;;;;;;;669.72;633.38;;;23.20;76.30;;;;;;5047540;28;20201;-39
2023/01/06 15:44:29;;;;;;;666.05;630.03;;;23.20;76.40;;;;;;5055785;28;20240;-40
2023/01/06 15:47:15;;;;;;;676.85;640.03;;;23.20;76.30;;;;;;5049694;28;20599;-40
2023/01/06 15:49:48;;;;;;;571.97;544.45;;;23.20;76.40;;;;;;5054784;28;20637;-39
2023/01/06 15:52:23;;;;;;;604.45;574.35;;;23.20;76.50;;;;;;5046899;28;20224;-40
2023/01/06 15:54:51;;;;;;;574.15;547.00;;;23.10;76.60;;;;;;5051664;28;20545;-40
2023/01/06 15:57:18;;;;;;;613.03;583.28;;;23.20;76.60;;;;;;5040692;28;20205;-42
2023/01/06 15:59:54;;;;;;;644.75;611.65;;;23.20;76.60;;;;;;5037832;28;20208;-41
2023/01/06 16:02:25;;;;;;;637.50;605.13;;;23.10;76.60;;;;;;5048466;28;20201;-41
2023/01/06 16:04:52;;;;;;;602.67;573.20;;;23.20;76.60;;;;;;5045793;28;20203;-42
2023/01/06 16:07:35;;;;;;;573.63;546.78;;;23.20;76.50;;;;;;5056550;28;20201;-42
2023/01/06 16:10:02;;;;;;;554.63;529.15;;;23.20;76.30;;;;;;5049963;28;20206;-43
2023/01/06 16:12:29;;;;;;;578.97;551.28;;;23.20;76.30;;;;;;5058520;28;20222;-43
2023/01/06 16:14:55;;;;;;;596.47;567.80;;;23.20;76.50;;;;;;5052193;28;20193;-43
2023/01/06 16:17:28;;;;;;;606.78;576.97;;;23.30;76.50;;;;;;5045734;28;20658;-42
2023/01/06 16:19:59;;;;;;;548.08;521.50;;;23.30;76.40;;;;;;5045913;28;20229;-42
2023/01/06 16:22:34;;;;;;;631.25;598.65;;;23.30;76.30;;;;;;5049076;28;20201;-42
2023/01/06 16:25:03;;;;;;;554.38;528.70;;;23.30;76.20;;;;;;5052431;28;20204;-41
2023/01/06 16:27:31;;;;;;;562.20;535.67;;;23.40;76.00;;;;;;5037689;28;20218;-41
2023/01/06 16:30:09;;;;;;;584.35;556.25;;;23.40;76.10;;;;;;5047398;28;20283;-44
2023/01/06 16:32:40;;;;;;;559.97;533.60;;;23.40;76.10;;;;;;5039230;28;20221;-45
2023/01/06 16:35:12;;;;;;;630.45;599.30;;;23.30;76.10;;;;;;5046732;28;20608;-43
2023/01/06 16:37:39;;;;;;;485.88;465.73;;;23.30;76.10;;;;;;5059424;28;20200;-43
2023/01/06 16:40:07;;;;;;;568.13;541.80;;;23.30;76.20;;;;;;5037085;28;20203;-42
2023/01/06 16:42:41;;;;;;;626.58;595.35;;;23.30;76.30;;;;;;5048130;28;20202;-43
2023/01/06 16:45:33;;;;;;;623.35;591.83;;;23.30;76.10;;;;;;5047908;28;20261;-44
2023/01/06 16:48:01;;;;;;;651.92;618.10;;;23.30;76.00;;;;;;5043382;28;20750;-42
2023/01/06 16:50:33;;;;;;;518.38;495.63;;;23.40;76.20;;;;;;5047145;28;20525;-42
2023/01/06 16:53:05;;;;;;;528.30;504.95;;;23.30;76.10;;;;;;5039728;28;20275;-42
2023/01/06 16:55:32;;;;;;;684.40;648.35;;;23.40;76.10;;;;;;5042977;28;20202;-41
2023/01/06 16:58:00;;;;;;;777.50;725.55;;;23.30;76.10;;;;;;5046363;28;20198;-41
2023/01/06 17:00:27;;;;;;;447.38;429.65;;;23.40;76.10;;;;;;5042587;28;20204;-42
2023/01/06 17:02:54;;;;;;;518.35;495.42;;;23.30;76.10;;;;;;5043707;28;20202;-41
2023/01/06 17:05:28;;;;;;;782.13;729.42;;;23.40;76.10;;;;;;5043858;28;20206;-42
2023/01/06 17:08:01;;;;;;;525.60;501.25;;;23.40;76.10;;;;;;5050807;28;20299;-43
2023/01/06 17:10:28;;;;;;;461.98;443.02;;;23.30;76.10;;;;;;5039266;28;20263;-44
2023/01/06 17:15:46;;;;;;;470.55;451.10;;;23.30;76.00;;;;;;5043980;28;20508;-43
2023/01/06 17:18:21;;;;;;;559.85;533.78;;;23.40;76.00;;;;;;5037514;28;20216;-41
2023/01/06 17:20:49;;;;;;;607.42;577.85;;;23.50;75.70;;;;;;5043209;28;20724;-43
2023/01/06 17:23:16;;;;;;;584.88;556.78;;;23.50;75.60;;;;;;5047292;28;20554;-43
2023/01/06 17:25:44;;;;;;;650.40;617.72;;;23.50;75.60;;;;;;5043404;28;20224;-43
2023/01/06 17:28:18;;;;;;;573.80;546.58;;;23.40;75.60;;;;;;5049312;28;20265;-45
2023/01/06 17:30:45;;;;;;;740.58;696.83;;;23.40;75.80;;;;;;5053191;28;20295;-46
2023/01/06 17:33:14;;;;;;;540.70;516.75;;;23.40;76.70;;;;;;5043145;28;20225;-45
2023/01/06 17:35:44;;;;;;;727.97;686.85;;;23.30;76.00;;;;;;5046897;28;20275;-44
2023/01/06 17:38:17;;;;;;;638.65;606.05;;;23.30;76.00;;;;;;5047480;28;20220;-43
2023/01/06 17:40:43;;;;;;;580.45;553.30;;;23.30;76.10;;;;;;5045197;28;20197;-44
2023/01/06 17:43:21;;;;;;;603.20;573.33;;;23.30;76.10;;;;;;5046728;28;20206;-44
2023/01/06 17:45:48;;;;;;;798.33;747.28;;;23.30;77.00;;;;;;5046029;28;20285;-43
2023/01/06 17:48:15;;;;;;;481.45;461.45;;;23.30;75.20;;;;;;5041959;28;20208;-43
2023/01/06 17:50:46;;;;;;;490.38;469.38;;;23.20;75.80;;;;;;5040686;28;20193;-43
2023/01/06 17:56:02;;;;;;;485.73;464.67;;;23.20;75.90;;;;;;5048128;28;20664;-43
2023/01/06 17:58:30;;;;;;;545.00;519.70;;;23.10;76.30;;;;;;5048952;28;20197;-44
2023/01/06 18:00:58;;;;;;;463.33;443.85;;;23.20;75.70;;;;;;5057729;28;20204;-43
2023/01/06 18:03:27;;;;;;;501.40;479.13;;;23.00;74.70;;;;;;5037665;28;20200;-46
2023/01/06 18:06:12;;;;;;;526.45;502.33;;;22.90;75.60;;;;;;5046785;28;20201;-47
2023/01/06 18:08:40;;;;;;;532.00;506.45;;;22.60;76.60;;;;;;5055095;28;20200;-53
2023/01/06 18:11:28;;;;;;;584.72;556.45;;;22.40;77.60;;;;;;5050023;28;20206;-52
2023/01/06 18:13:54;;;;;;;528.72;504.27;;;22.20;78.40;;;;;;5041289;28;20732;-52
2023/01/06 18:16:28;;;;;;;564.95;538.25;;;22.10;78.10;;;;;;5041452;28;20199;-41
2023/01/06 18:19:02;;;;;;;651.40;617.67;;;22.10;78.50;;;;;;5045499;28;20211;-40
2023/01/06 18:21:35;;;;;;;558.15;529.63;;;21.90;79.20;;;;;;5055999;28;20260;-40
2023/01/06 18:24:14;;;;;;;557.95;532.00;;;21.80;79.70;;;;;;5049442;28;20209;-40
2023/01/06 18:26:47;;;;;;;561.35;535.15;;;21.70;80.10;;;;;;5039542;28;20228;-40
2023/01/06 18:29:17;;;;;;;766.92;716.08;;;21.70;80.10;;;;;;5037864;28;20294;-40
2023/01/06 18:31:45;;;;;;;519.88;495.55;;;21.70;80.60;;;;;;5043608;28;20256;-40
2023/01/06 18:34:25;;;;;;;576.20;548.50;;;21.70;80.80;;;;;;5039242;28;20279;-38
2023/01/06 18:36:54;;;;;;;295.88;285.17;;;21.60;81.00;;;;;;5040548;28;20204;-40
2023/01/06 18:39:24;;;;;;;443.17;424.85;;;21.60;81.20;;;;;;5049332;28;20214;-39
2023/01/06 18:42:04;;;;;;;564.80;537.65;;;21.60;81.40;;;;;;5047016;28;20221;-40
2023/01/06 18:44:31;;;;;;;571.55;543.80;;;21.50;81.40;;;;;;5045973;28;20652;-39
2023/01/06 18:46:59;;;;;;;577.20;550.22;;;21.50;81.60;;;;;;5049462;28;20192;-40
2023/01/06 18:49:32;;;;;;;596.80;567.60;;;21.50;81.80;;;;;;5043092;28;20212;-40
2023/01/06 18:51:58;;;;;;;739.28;688.38;;;21.40;81.70;;;;;;5041730;28;20202;-40
2023/01/06 18:54:26;;;;;;;652.65;617.95;;;21.40;81.90;;;;;;5042009;28;20230;-39
2023/01/06 18:56:53;;;;;;;599.40;569.63;;;21.40;81.90;;;;;;5046244;28;20619;-39
2023/01/06 18:59:26;;;;;;;559.55;533.10;;;21.40;81.80;;;;;;5048491;28;22048;-39
2023/01/06 19:01:52;;;;;;;580.10;551.20;;;21.40;82.00;;;;;;5044718;28;20312;-39
2023/01/06 19:04:24;;;;;;;790.35;735.28;;;21.30;82.00;;;;;;5044140;28;20204;-40
2023/01/06 19:06:54;;;;;;;779.08;726.15;;;21.30;81.90;;;;;;5042550;28;20198;-40
2023/01/06 19:09:31;;;;;;;775.55;721.67;;;21.30;82.90;;;;;;5042182;28;20204;-39
2023/01/06 19:12:11;;;;;;;717.95;675.47;;;21.30;82.10;;;;;;5042482;28;20515;-39
2023/01/06 19:14:40;;;;;;;749.83;702.63;;;21.20;82.20;;;;;;5044595;28;20239;-39
2023/01/06 19:17:19;;;;;;;599.30;569.35;;;21.30;82.40;;;;;;5045974;28;20197;-40
2023/01/06 19:19:46;;;;;;;718.03;673.70;;;21.20;82.40;;;;;;5041239;28;20240;-40
2023/01/06 19:22:18;;;;;;;590.92;561.28;;;21.10;82.60;;;;;;5045071;28;20189;-40
2023/01/06 19:24:50;;;;;;;599.40;569.08;;;21.20;82.40;;;;;;5044456;28;20497;-40
2023/01/06 19:27:31;;;;;;;548.90;522.25;;;21.20;82.40;;;;;;5046371;28;20228;-40
2023/01/06 19:30:21;;;;;;;568.72;541.22;;;21.10;82.80;;;;;;5045358;28;20279;-41
2023/01/06 19:32:47;;;;;;;593.00;563.00;;;21.10;82.60;;;;;;5048111;28;20200;-40
2023/01/06 19:35:21;;;;;;;576.05;548.38;;;21.00;82.90;;;;;;5045576;28;20250;-40
2023/01/06 19:37:48;;;;;;;572.80;543.08;;;21.00;83.10;;;;;;5041663;28;20209;-40
2023/01/06 19:40:25;;;;;;;541.90;516.10;;;21.10;82.90;;;;;;5041515;28;20615;-40
2023/01/06 19:42:52;;;;;;;660.03;624.53;;;21.00;82.90;;;;;;5045481;28;20196;-40
2023/01/06 19:45:28;;;;;;;649.22;612.47;;;21.00;83.30;;;;;;5041822;28;20203;-40
2023/01/06 19:47:55;;;;;;;691.50;653.38;;;21.00;83.20;;;;;;5045654;28;20886;-40
2023/01/06 19:50:24;;;;;;;756.35;703.35;;;21.00;83.30;;;;;;5044375;28;20205;-40
2023/01/06 19:52:56;;;;;;;556.17;530.30;;;21.00;83.40;;;;;;5042563;28;20204;-40
2023/01/06 19:55:26;;;;;;;643.95;610.15;;;21.00;83.40;;;;;;5040923;28;20312;-40
2023/01/06 19:57:55;;;;;;;699.47;656.78;;;21.00;83.30;;;;;;5048556;28;20193;-40
2023/01/06 20:00:28;;;;;;;498.30;476.48;;;20.90;83.50;;;;;;5042955;28;20278;-40
2023/01/06 20:02:57;;;;;;;594.63;564.63;;;20.90;83.50;;;;;;5043493;28;20200;-40
2023/01/06 20:05:24;;;;;;;698.50;650.97;;;20.90;83.50;;;;;;5041567;28;20198;-40
2023/01/06 20:07:51;;;;;;;712.92;667.97;;;20.90;83.50;;;;;;5043881;28;20242;-40
2023/01/06 20:10:19;;;;;;;488.55;467.17;;;20.90;83.50;;;;;;5038267;28;20235;-40
2023/01/06 20:12:47;;;;;;;414.38;397.08;;;20.90;83.50;;;;;;5046237;28;20195;-40
2023/01/06 20:15:15;;;;;;;384.02;368.92;;;20.80;83.40;;;;;;5038527;28;20231;-45
2023/01/06 20:17:42;;;;;;;490.30;468.33;;;21.00;83.90;;;;;;5039806;28;20270;-44
2023/01/06 20:20:09;;;;;;;436.58;418.50;;;21.10;83.20;;;;;;5037229;28;20239;-44
2023/01/06 20:22:36;;;;;;;378.35;363.73;;;21.20;82.60;;;;;;5036715;28;20192;-44
2023/01/06 20:25:02;;;;;;;333.35;321.02;;;21.30;82.40;;;;;;5046139;28;20546;-44
2023/01/06 20:27:29;;;;;;;374.75;360.15;;;21.30;81.90;;;;;;5042387;28;20237;-44
2023/01/06 20:29:57;;;;;;;271.98;262.30;;;21.40;81.70;;;;;;5040960;28;20193;-42
2023/01/06 20:32:23;;;;;;;298.38;287.33;;;21.40;81.50;;;;;;5044666;28;20203;-42
2023/01/06 20:34:50;;;;;;;386.02;371.15;;;21.40;81.30;;;;;;5043852;28;20216;-42
2023/01/06 20:37:17;;;;;;;540.63;514.95;;;21.40;81.10;;;;;;5034363;28;20265;-42
2023/01/06 20:39:43;;;;;;;515.15;489.92;;;21.40;80.90;;;;;;5039771;28;20211;-44
2023/01/06 20:42:10;;;;;;;449.58;429.30;;;21.40;80.80;;;;;;5043530;28;20212;-42
2023/01/06 20:44:37;;;;;;;329.90;317.65;;;21.40;81.70;;;;;;5047816;28;20227;-42
2023/01/06 20:47:05;;;;;;;348.88;336.00;;;21.40;80.60;;;;;;5040724;28;20236;-43
2023/01/06 20:49:32;;;;;;;480.90;458.88;;;21.50;80.60;;;;;;5047658;28;20193;-43
2023/01/06 20:51:58;;;;;;;169.23;163.45;;;21.40;80.40;;;;;;5041554;28;20196;-44
2023/01/06 20:54:25;;;;;;;425.70;408.35;;;21.50;81.30;;;;;;5037349;28;20220;-43
2023/01/06 20:56:52;;;;;;;253.63;244.77;;;21.40;80.30;;;;;;5042969;28;20192;-43
2023/01/06 20:59:19;;;;;;;181.38;174.98;;;21.50;80.30;;;;;;5043179;28;20646;-43
2023/01/06 21:01:45;;;;;;;201.30;194.52;;;21.40;80.10;;;;;;5039460;28;20201;-44
2023/01/06 21:04:13;;;;;;;220.55;213.02;;;21.50;80.10;;;;;;5041321;28;20200;-44
2023/01/06 21:06:40;;;;;;;154.90;149.65;;;21.50;80.10;;;;;;5043258;28;20209;-43
2023/01/06 21:09:07;;;;;;;211.10;203.80;;;21.40;80.00;;;;;;5045157;28;20215;-44
2023/01/06 21:11:33;;;;;;;202.07;195.18;;;21.50;80.00;;;;;;5036405;28;20201;-43
2023/01/06 21:14:00;;;;;;;260.00;251.02;;;21.50;80.00;;;;;;5047125;28;20608;-44
2023/01/06 21:16:27;;;;;;;201.75;195.00;;;21.50;80.00;;;;;;5045754;28;20199;-43
2023/01/06 21:18:53;;;;;;;281.63;271.48;;;21.50;79.90;;;;;;5040261;28;20196;-43
2023/01/06 21:21:21;;;;;;;314.35;302.92;;;21.50;79.80;;;;;;5041671;28;20205;-44
2023/01/06 21:23:48;;;;;;;325.92;313.80;;;21.50;79.80;;;;;;5044537;28;20192;-44
2023/01/06 21:26:15;;;;;;;525.08;499.70;;;21.50;79.70;;;;;;5042956;28;20200;-41
2023/01/06 21:28:41;;;;;;;455.98;435.88;;;21.50;79.60;;;;;;5041298;28;20196;-42
2023/01/06 21:31:11;;;;;;;416.25;398.52;;;21.50;79.80;;;;;;5043477;28;20212;-42
2023/01/06 21:33:37;;;;;;;443.60;424.92;;;21.50;79.70;;;;;;5041800;28;20202;-42
2023/01/06 21:36:04;;;;;;;364.25;350.08;;;21.50;79.70;;;;;;5041070;28;20192;-41
2023/01/06 21:38:33;;;;;;;318.25;306.60;;;21.40;79.60;;;;;;5045800;28;20197;-42
2023/01/06 21:43:07;;;;;;;430.27;412.52;;;21.40;79.70;;;;;;5044770;28;20295;-41
2023/01/06 21:43:50;;;;;;;423.73;406.25;;;21.40;79.70;;;;;;5043975;28;20593;-42
2023/01/06 21:46:17;;;;;;;394.67;378.87;;;21.40;79.80;;;;;;5046248;28;20196;-42
2023/01/06 21:48:43;;;;;;;414.30;397.23;;;21.40;79.80;;;;;;5043351;28;20472;-42
2023/01/06 21:51:10;;;;;;;450.10;430.75;;;21.40;79.80;;;;;;5044885;28;20208;-42
2023/01/06 21:53:38;;;;;;;485.65;464.00;;;21.40;79.80;;;;;;5045235;28;20330;-42
2023/01/06 21:56:07;;;;;;;351.83;337.73;;;21.40;79.80;;;;;;5046494;28;20228;-42
2023/01/06 21:58:34;;;;;;;385.15;369.77;;;21.40;80.00;;;;;;5042125;28;20228;-38
2023/01/06 22:01:00;;;;;;;377.98;362.83;;;21.30;79.90;;;;;;5043761;28;20250;-38
2023/01/06 22:03:27;;;;;;;422.40;405.02;;;21.00;80.70;;;;;;5040990;28;20204;-39
2023/01/06 22:05:54;;;;;;;456.60;436.95;;;20.90;81.40;;;;;;5042001;28;20211;-39
2023/01/06 22:08:21;;;;;;;408.38;391.88;;;20.90;81.80;;;;;;5043689;28;20199;-39
2023/01/06 22:10:49;;;;;;;466.73;445.77;;;20.90;82.00;;;;;;5044723;28;20199;-39